createdAt,value
2022-10-20T00:02:56.193Z,102169.81
2022-10-20T00:06:08.077Z,102168.16
2022-10-20T00:09:10.697Z,102158.50
2022-10-20T00:12:13.282Z,102160.97
2022-10-20T00:15:17.430Z,102164.75
2022-10-20T00:18:20.290Z,102167.34
2022-10-20T00:21:24.578Z,102171.66
2022-10-20T00:24:27.073Z,102156.66
2022-10-20T00:27:29.627Z,102151.53
2022-10-20T00:30:34.801Z,102144.44
2022-10-20T00:33:37.553Z,102135.41
2022-10-20T00:36:40.625Z,102132.88
2022-10-20T00:39:43.114Z,102139.88
2022-10-20T00:42:45.827Z,102138.91
2022-10-20T00:45:55.649Z,102133.75
2022-10-20T00:49:01.471Z,102130.31
2022-10-20T00:52:04.190Z,102118.78
2022-10-20T00:55:09.042Z,102124.94
2022-10-20T00:58:11.583Z,102123.09
2022-10-20T01:01:15.742Z,102114.22
2022-10-20T01:04:18.835Z,102104.63
2022-10-20T01:07:21.332Z,102096.69
2022-10-20T01:10:27.599Z,102089.75
2022-10-20T01:13:39.545Z,102085.28
2022-10-20T01:16:52.660Z,102088.94
2022-10-20T01:20:19.604Z,102083.63
2022-10-20T01:24:01.296Z,102073.84
2022-10-20T01:27:29.120Z,102080.94
2022-10-20T01:30:33.060Z,102075.84
2022-10-20T01:33:42.676Z,102066.06
2022-10-20T01:36:51.910Z,102065.25
2022-10-20T01:40:01.417Z,102061.84
2022-10-20T01:43:10.132Z,102062.72
2022-10-20T01:46:14.510Z,102056.50
2022-10-20T01:49:17.476Z,102052.97
2022-10-20T01:52:22.321Z,102056.72
2022-10-20T01:55:25.410Z,102055.81
2022-10-20T01:59:03.645Z,102053.16
2022-10-20T02:02:30.041Z,102047.88
2022-10-20T02:05:47.010Z,102042.56
2022-10-20T02:08:53.484Z,102035.53
2022-10-20T02:12:02.346Z,102026.69
2022-10-20T02:15:07.862Z,102026.69
2022-10-20T02:18:12.829Z,102026.56
2022-10-20T02:21:17.330Z,102011.75
2022-10-20T02:24:22.859Z,102010.03
2022-10-20T02:27:30.082Z,102017.13
2022-10-20T02:30:35.362Z,102002.06
2022-10-20T02:33:39.126Z,102000.38
2022-10-20T02:36:43.965Z,101994.34
2022-10-20T02:39:46.457Z,101988.34
2022-10-20T02:42:48.982Z,101982.94
2022-10-20T02:45:52.789Z,101982.88
2022-10-20T02:48:55.303Z,101991.75
2022-10-20T02:51:57.802Z,101992.81
2022-10-20T02:55:00.565Z,101989.25
2022-10-20T02:58:03.063Z,101987.56
2022-10-20T03:01:06.950Z,101995.50
2022-10-20T03:04:09.665Z,101991.88
2022-10-20T03:07:13.652Z,101995.41
2022-10-20T03:10:16.258Z,101990.25
2022-10-20T03:13:18.739Z,101984.06
2022-10-20T03:16:22.622Z,101981.44
2022-10-20T03:19:25.134Z,101985.06
2022-10-20T03:22:27.628Z,101977.31
2022-10-20T03:25:32.388Z,101980.94
2022-10-20T03:28:35.302Z,101979.00
2022-10-20T03:31:39.175Z,101972.84
2022-10-20T03:34:41.690Z,101977.19
2022-10-20T03:37:44.190Z,101970.13
2022-10-20T03:40:46.832Z,101971.13
2022-10-20T03:43:49.309Z,101970.34
2022-10-20T03:46:53.114Z,101969.41
2022-10-20T03:49:55.665Z,101965.06
2022-10-20T03:52:58.227Z,101960.59
2022-10-20T03:56:00.712Z,101957.16
2022-10-20T04:02:08.126Z,101957.25
2022-10-20T04:05:13.882Z,101956.50
2022-10-20T04:08:16.393Z,101951.03
2022-10-20T04:11:18.910Z,101953.75
2022-10-20T04:14:21.382Z,101946.69
2022-10-20T04:17:25.396Z,101953.72
2022-10-20T04:20:27.911Z,101953.88
2022-10-20T04:23:30.510Z,101941.50
2022-10-20T04:26:33.006Z,101939.81
2022-10-20T04:29:35.892Z,101931.84
2022-10-20T04:32:39.839Z,101936.22
2022-10-20T04:35:42.472Z,101930.91
2022-10-20T04:38:44.989Z,101937.09
2022-10-20T04:41:47.513Z,101938.81
2022-10-20T04:44:50.098Z,101934.50
2022-10-20T04:47:55.377Z,101938.03
2022-10-20T04:51:02.224Z,101933.69
2022-10-20T04:57:12.312Z,101922.19
2022-10-20T05:00:15.859Z,101915.19
2022-10-20T05:03:19.937Z,101908.88
2022-10-20T05:06:24.813Z,101903.56
2022-10-20T05:09:27.295Z,101898.22
2022-10-20T05:12:29.819Z,101896.50
2022-10-20T05:15:32.317Z,101891.31
2022-10-20T05:18:36.857Z,101877.13
2022-10-20T05:21:39.775Z,101878.03
2022-10-20T05:24:42.264Z,101867.44
2022-10-20T05:27:44.963Z,101860.38
2022-10-20T05:30:47.462Z,101859.28
2022-10-20T05:33:53.790Z,101849.53
2022-10-20T05:36:56.275Z,101845.28
2022-10-20T05:39:59.797Z,101828.44
2022-10-20T05:43:02.251Z,101836.47
2022-10-20T05:46:05.332Z,101830.13
2022-10-20T05:49:13.975Z,101827.59
2022-10-20T05:52:16.474Z,101834.88
2022-10-20T05:55:19.329Z,101826.69
2022-10-20T05:58:23.075Z,101824.78
2022-10-20T06:01:27.481Z,101832.06
2022-10-20T06:04:31.789Z,101825.63
2022-10-20T06:07:34.319Z,101830.13
2022-10-20T06:10:36.814Z,101829.09
2022-10-20T06:13:39.519Z,101823.88
2022-10-20T06:16:42.024Z,101825.59
2022-10-20T06:19:45.845Z,101819.19
2022-10-20T06:22:48.312Z,101817.50
2022-10-20T06:25:50.780Z,101823.09
2022-10-20T06:28:59.813Z,101820.13
2022-10-20T06:32:05.913Z,101813.94
2022-10-20T06:35:09.949Z,101808.75
2022-10-20T06:38:12.425Z,101823.44
2022-10-20T06:41:16.764Z,101821.91
2022-10-20T06:44:20.000Z,101814.06
2022-10-20T06:47:22.492Z,101819.59
2022-10-20T06:50:26.520Z,101824.59
2022-10-20T06:53:30.337Z,101825.97
2022-10-20T06:56:34.837Z,101819.78
2022-10-20T06:59:38.661Z,101809.25
2022-10-20T07:02:41.133Z,101816.78
2022-10-20T07:05:44.971Z,101806.09
2022-10-20T07:08:48.227Z,101809.56
2022-10-20T07:11:53.957Z,101813.47
2022-10-20T07:14:56.478Z,101811.41
2022-10-20T07:17:58.964Z,101816.59
2022-10-20T07:21:05.317Z,101805.28
2022-10-20T07:24:09.399Z,101803.28
2022-10-20T07:27:11.866Z,101816.56
2022-10-20T07:30:14.500Z,101811.63
2022-10-20T07:33:17.028Z,101807.59
2022-10-20T07:36:23.715Z,101800.16
2022-10-20T07:39:26.693Z,101791.44
2022-10-20T07:42:30.166Z,101790.16
2022-10-20T07:45:33.267Z,101778.47
2022-10-20T07:48:36.045Z,101764.38
2022-10-20T07:51:39.915Z,101752.97
2022-10-20T07:54:42.424Z,101743.63
2022-10-20T07:57:44.916Z,101741.22
2022-10-20T08:00:47.399Z,101735.44
2022-10-20T08:03:49.924Z,101730.94
2022-10-20T08:06:53.772Z,101734.66
2022-10-20T08:09:56.358Z,101729.97
2022-10-20T08:12:58.967Z,101728.44
2022-10-20T08:16:04.458Z,101727.25
2022-10-20T08:19:13.584Z,101730.03
2022-10-20T08:22:19.092Z,101724.00
2022-10-20T08:25:21.665Z,101721.50
2022-10-20T08:28:26.262Z,101713.47
2022-10-20T08:31:29.615Z,101702.56
2022-10-20T08:34:32.419Z,101700.28
2022-10-20T08:37:37.249Z,101677.78
2022-10-20T08:40:43.358Z,101670.38
2022-10-20T08:43:48.003Z,101674.44
2022-10-20T08:46:50.654Z,101676.25
2022-10-20T08:49:53.458Z,101666.63
2022-10-20T08:53:00.564Z,101680.25
2022-10-20T08:56:03.056Z,101642.94
2022-10-20T08:59:22.817Z,101636.75
2022-10-20T09:02:25.340Z,101648.94
2022-10-20T09:05:32.288Z,101632.59
2022-10-20T09:08:39.340Z,101636.22
2022-10-20T09:11:44.241Z,101638.44
2022-10-20T09:14:46.755Z,101636.25
2022-10-20T09:17:52.554Z,101638.41
2022-10-20T09:20:58.604Z,101635.50
2022-10-20T09:24:05.418Z,101619.75
2022-10-20T09:27:21.580Z,101605.28
2022-10-20T09:30:26.382Z,101602.19
2022-10-20T09:33:31.230Z,101593.59
2022-10-20T09:36:36.335Z,101603.69
2022-10-20T09:39:54.191Z,101604.00
2022-10-20T09:43:02.249Z,101603.91
2022-10-20T09:46:07.633Z,101589.31
2022-10-20T09:49:24.695Z,101600.72
2022-10-20T09:52:34.117Z,101589.53
2022-10-20T09:55:46.071Z,101590.84
2022-10-20T09:58:48.653Z,101613.81
2022-10-20T10:01:56.158Z,101611.91
2022-10-20T10:05:16.078Z,101593.00
2022-10-20T10:08:19.278Z,101595.16
2022-10-20T10:11:27.713Z,101588.81
2022-10-20T10:14:33.140Z,101589.91
2022-10-20T10:17:39.125Z,101582.63
2022-10-20T10:20:42.285Z,101588.41
2022-10-20T10:23:56.492Z,101584.84
2022-10-20T10:27:00.601Z,101570.06
2022-10-20T10:30:28.328Z,101573.72
2022-10-20T10:33:33.014Z,101568.63
2022-10-20T10:36:37.419Z,101553.34
2022-10-20T10:39:39.902Z,101548.16
2022-10-20T10:43:00.100Z,101548.41
2022-10-20T10:46:07.142Z,101532.75
2022-10-20T10:49:29.895Z,101529.31
2022-10-20T10:52:42.817Z,101516.34
2022-10-20T10:55:54.876Z,101513.19
2022-10-20T10:59:05.459Z,101517.31
2022-10-20T11:02:30.314Z,101501.56
2022-10-20T11:05:55.231Z,101484.91
2022-10-20T11:09:12.969Z,101483.97
2022-10-20T11:12:46.827Z,101476.81
2022-10-20T11:16:01.276Z,101472.22
2022-10-20T11:19:20.732Z,101466.31
2022-10-20T11:22:36.645Z,101464.66
2022-10-20T11:25:45.708Z,101461.75
2022-10-20T11:28:50.475Z,101453.88
2022-10-20T11:32:02.266Z,101447.94
2022-10-20T11:35:15.206Z,101437.69
2022-10-20T11:38:22.356Z,101442.31
2022-10-20T11:41:30.464Z,101432.25
2022-10-20T11:44:38.201Z,101428.34
2022-10-20T11:47:46.351Z,101409.13
2022-10-20T11:51:11.738Z,101401.47
2022-10-20T11:54:40.258Z,101395.47
2022-10-20T11:57:59.000Z,101392.00
2022-10-20T12:01:26.470Z,101394.53
2022-10-20T12:04:41.816Z,101398.09
2022-10-20T12:08:24.718Z,101405.72
2022-10-20T12:11:30.827Z,101386.91
2022-10-20T12:14:37.691Z,101376.84
2022-10-20T12:17:43.370Z,101370.97
2022-10-20T12:20:59.667Z,101357.84
2022-10-20T12:24:05.786Z,101341.78
2022-10-20T12:27:28.145Z,101345.41
2022-10-20T12:30:45.189Z,101333.94
2022-10-20T12:34:03.688Z,101329.97
2022-10-20T12:37:17.775Z,101324.44
2022-10-20T12:40:26.020Z,101304.75
2022-10-20T12:43:35.676Z,101305.75
2022-10-20T12:46:43.703Z,101308.63
2022-10-20T12:49:55.251Z,101299.94
2022-10-20T12:53:11.821Z,101297.31
2022-10-20T12:56:21.126Z,101284.91
2022-10-20T12:59:40.125Z,101284.31
2022-10-20T13:02:50.430Z,101273.81
2022-10-20T13:05:52.920Z,101275.00
2022-10-20T13:09:22.860Z,101273.47
2022-10-20T13:12:28.940Z,101261.44
2022-10-20T13:15:35.937Z,101249.28
2022-10-20T13:18:45.532Z,101241.56
2022-10-20T13:21:49.768Z,101229.47
2022-10-20T13:24:56.026Z,101243.69
2022-10-20T13:28:08.351Z,101236.72
2022-10-20T13:31:20.663Z,101246.53
2022-10-20T13:34:27.966Z,101243.97
2022-10-20T13:37:45.530Z,101244.31
2022-10-20T13:41:02.585Z,101258.44
2022-10-20T13:44:16.448Z,101258.63
2022-10-20T13:47:47.178Z,101235.50
2022-10-20T13:50:57.156Z,101235.94
2022-10-20T13:54:03.917Z,101240.63
2022-10-20T13:57:08.887Z,101225.50
2022-10-20T14:00:20.425Z,101217.22
2022-10-20T14:03:22.894Z,101207.06
2022-10-20T14:06:37.661Z,101224.75
2022-10-20T14:09:45.246Z,101232.72
2022-10-20T14:12:51.897Z,101218.59
2022-10-20T14:15:57.006Z,101224.00
2022-10-20T14:19:05.020Z,101221.56
2022-10-20T14:22:18.922Z,101226.97
2022-10-20T14:25:22.367Z,101211.00
2022-10-20T14:28:29.222Z,101201.34
2022-10-20T14:31:31.909Z,101208.69
2022-10-20T14:34:36.687Z,101203.00
2022-10-20T14:37:41.340Z,101202.44
2022-10-20T14:40:51.217Z,101201.41
2022-10-20T14:44:02.095Z,101216.41
2022-10-20T14:47:14.769Z,101201.34
2022-10-20T14:50:23.471Z,101191.63
2022-10-20T14:53:33.734Z,101178.41
2022-10-20T14:56:44.487Z,101176.41
2022-10-20T14:59:55.894Z,101168.13
2022-10-20T15:03:02.930Z,101166.22
2022-10-20T15:06:05.808Z,101160.66
2022-10-20T15:09:18.890Z,101153.53
2022-10-20T15:12:25.730Z,101147.97
2022-10-20T15:15:37.636Z,101149.47
2022-10-20T15:18:40.219Z,101144.53
2022-10-20T15:21:42.707Z,101131.59
2022-10-20T15:24:48.853Z,101132.03
2022-10-20T15:27:51.885Z,101140.59
2022-10-20T15:30:55.762Z,101143.34
2022-10-20T15:33:59.525Z,101136.72
2022-10-20T15:37:02.025Z,101140.50
2022-10-20T15:40:05.063Z,101156.97
2022-10-20T15:43:07.628Z,101155.59
2022-10-20T15:46:12.992Z,101157.53
2022-10-20T15:49:15.937Z,101155.59
2022-10-20T15:52:18.504Z,101145.53
2022-10-20T15:55:23.316Z,101154.38
2022-10-20T15:58:25.802Z,101147.34
2022-10-20T16:01:29.740Z,101152.97
2022-10-20T16:04:32.354Z,101155.28
2022-10-20T16:07:35.176Z,101151.00
2022-10-20T16:10:38.828Z,101166.78
2022-10-20T16:13:41.377Z,101160.88
2022-10-20T16:16:45.748Z,101149.84
2022-10-20T16:19:48.250Z,101150.97
2022-10-20T16:22:50.840Z,101159.94
2022-10-20T16:25:53.383Z,101158.91
2022-10-20T16:28:56.059Z,101153.84
2022-10-20T16:32:00.206Z,101148.38
2022-10-20T16:35:02.844Z,101154.88
2022-10-20T16:38:05.317Z,101154.88
2022-10-20T16:41:10.336Z,101149.84
2022-10-20T16:44:13.065Z,101145.78
2022-10-20T16:47:16.913Z,101142.69
2022-10-20T16:50:19.400Z,101134.50
2022-10-20T16:53:23.646Z,101131.75
2022-10-20T16:56:26.901Z,101137.44
2022-10-20T16:59:29.431Z,101138.28
2022-10-20T17:02:35.500Z,101130.47
2022-10-20T17:05:37.980Z,101123.59
2022-10-20T17:08:41.165Z,101112.88
2022-10-20T17:11:43.734Z,101115.41
2022-10-20T17:14:46.221Z,101108.78
2022-10-20T17:17:50.034Z,101099.47
2022-10-20T17:20:55.814Z,101095.63
2022-10-20T17:23:58.473Z,101087.34
2022-10-20T17:27:00.961Z,101089.09
2022-10-20T17:30:03.466Z,101077.44
2022-10-20T17:33:07.279Z,101076.28
2022-10-20T17:36:11.531Z,101078.19
2022-10-20T17:39:17.267Z,101083.09
2022-10-20T17:42:19.811Z,101080.91
2022-10-20T17:45:22.294Z,101076.06
2022-10-20T17:48:26.140Z,101076.34
2022-10-20T17:51:33.381Z,101066.94
2022-10-20T17:54:37.567Z,101063.78
2022-10-20T17:57:40.106Z,101074.03
2022-10-20T18:00:56.115Z,101057.75
2022-10-20T18:04:03.184Z,101057.34
2022-10-20T18:07:05.714Z,101060.91
2022-10-20T18:10:08.938Z,101045.00
2022-10-20T18:13:11.544Z,101034.25
2022-10-20T18:16:15.814Z,101028.00
2022-10-20T18:19:20.380Z,101025.66
2022-10-20T18:22:22.859Z,101023.97
2022-10-20T18:25:25.439Z,101023.50
2022-10-20T18:28:27.943Z,101020.53
2022-10-20T18:31:32.417Z,101013.91
2022-10-20T18:34:38.474Z,101026.81
2022-10-20T18:37:41.634Z,101019.28
2022-10-20T18:40:44.140Z,101010.53
2022-10-20T18:43:47.491Z,101010.06
2022-10-20T18:46:51.313Z,100995.91
2022-10-20T18:49:55.130Z,101000.59
2022-10-20T18:52:57.610Z,100994.53
2022-10-20T18:56:01.627Z,100998.28
2022-10-20T18:59:06.168Z,100994.53
2022-10-20T19:02:10.962Z,100994.84
2022-10-20T19:05:14.774Z,100988.13
2022-10-20T19:08:17.480Z,100987.94
2022-10-20T19:11:21.498Z,100987.94
2022-10-20T19:14:24.096Z,100983.47
2022-10-20T19:17:26.561Z,100978.88
2022-10-20T19:20:32.071Z,100976.84
2022-10-20T19:23:36.587Z,100974.81
2022-10-20T19:26:40.566Z,100968.41
2022-10-20T19:29:43.062Z,100972.53
2022-10-20T19:32:45.747Z,100975.63
2022-10-20T19:35:51.040Z,100969.34
2022-10-20T19:38:53.701Z,100969.19
2022-10-20T19:41:57.458Z,100968.19
2022-10-20T19:44:59.921Z,100968.00
2022-10-20T19:48:02.448Z,100955.50
2022-10-20T19:51:06.555Z,100951.31
2022-10-20T19:54:09.514Z,100944.84
2022-10-20T19:57:11.990Z,100927.38
2022-10-20T20:00:14.889Z,100904.75
2022-10-20T20:03:17.919Z,100910.63
2022-10-20T20:06:23.014Z,100943.91
2022-10-20T20:09:29.277Z,100925.13
2022-10-20T20:12:31.882Z,100936.72
2022-10-20T20:15:34.384Z,100926.34
2022-10-20T20:18:37.136Z,100932.13
2022-10-20T20:21:40.968Z,100924.22
2022-10-20T20:24:44.094Z,100929.31
2022-10-20T20:27:46.683Z,100922.34
2022-10-20T20:30:59.830Z,100942.84
2022-10-20T20:34:02.356Z,100938.16
2022-10-20T20:37:06.151Z,100931.41
2022-10-20T20:40:09.487Z,100925.22
2022-10-20T20:43:12.061Z,100913.53
2022-10-20T20:46:16.704Z,100906.88
2022-10-20T20:49:19.321Z,100909.22
2022-10-20T20:52:23.166Z,100902.31
2022-10-20T20:55:25.648Z,100896.06
2022-10-20T20:58:29.390Z,100898.31
2022-10-20T21:01:32.557Z,100909.03
2022-10-20T21:04:35.188Z,100918.09
2022-10-20T21:07:39.534Z,100919.03
2022-10-20T21:10:42.262Z,100914.53
2022-10-20T21:13:46.555Z,100916.63
2022-10-20T21:16:49.125Z,100908.38
2022-10-20T21:19:51.591Z,100890.25
2022-10-20T21:22:55.453Z,100882.44
2022-10-20T21:25:57.939Z,100881.53
2022-10-20T21:29:00.497Z,100895.84
2022-10-20T21:32:02.972Z,100880.00
2022-10-20T21:35:05.850Z,100878.19
2022-10-20T21:38:09.661Z,100891.69
2022-10-20T21:41:14.050Z,100891.25
2022-10-20T21:44:16.677Z,100883.00
2022-10-20T21:47:19.177Z,100863.75
2022-10-20T21:50:21.685Z,100875.59
2022-10-20T21:53:25.508Z,100865.38
2022-10-20T21:56:28.689Z,100854.59
2022-10-20T21:59:32.219Z,100854.16
2022-10-20T22:02:34.683Z,100855.19
2022-10-20T22:05:37.474Z,100856.19
2022-10-20T22:08:43.191Z,100867.66
2022-10-20T22:11:49.813Z,100868.25
2022-10-20T22:14:52.320Z,100862.78
2022-10-20T22:17:54.786Z,100859.19
2022-10-20T22:20:57.459Z,100858.75
2022-10-20T22:24:01.402Z,100868.13
2022-10-20T22:27:15.361Z,100860.63
2022-10-20T22:30:27.710Z,100859.34
2022-10-20T22:33:30.205Z,100859.19
2022-10-20T22:36:32.714Z,100862.56
2022-10-20T22:39:36.546Z,100849.00
2022-10-20T22:42:39.240Z,100859.34
2022-10-20T22:45:41.922Z,100851.44
2022-10-20T22:48:46.092Z,100860.16
2022-10-20T22:51:48.675Z,100874.78
2022-10-20T22:54:52.517Z,100880.75
2022-10-20T22:57:55.034Z,100879.09
2022-10-20T23:00:57.595Z,100886.34
2022-10-20T23:04:00.140Z,100872.84
2022-10-20T23:10:11.696Z,100860.31
2022-10-20T23:13:14.186Z,100862.34
2022-10-20T23:16:16.724Z,100860.53
2022-10-20T23:19:19.479Z,100861.63
2022-10-20T23:22:21.974Z,100871.31
2022-10-20T23:25:25.813Z,100877.75
2022-10-20T23:28:28.299Z,100883.31
2022-10-20T23:31:30.782Z,100884.03
2022-10-20T23:37:38.150Z,100879.91
2022-10-20T23:40:42.220Z,100879.94
2022-10-20T23:43:44.815Z,100874.63
2022-10-20T23:46:47.359Z,100869.94
2022-10-20T23:49:49.841Z,100865.47
2022-10-20T23:52:52.780Z,100867.22
2022-10-20T23:55:56.610Z,100871.84
2022-10-20T23:58:59.106Z,100875.22
